FDX499 PANC-KEWR
Flight info
| Callsign | FDX499 |
|---|---|
| Flight time | N/A |
| Altitude | 33000 |
| Route | ELLAM NCA20 OMSUN ALUSO YQH 59N120W 58N114W TULAG 54N100W YRL ETMAT SSM YVV ROC HNK FLOSI4 |
| Aircraft | MD11/H-SDE1E2E3FGHIJ2J3J4J5M1RWXY/LB1D1 |
Departure
| Time | 2026-05-03 22:22 |
|---|---|
| Airport | Ted Stevens Anchorage International Airport (PANC) |
Arrival
| Time | N/A |
|---|---|
| Airport | Newark Liberty International Airport (KEWR) |
| Time | Latitude | Longitude | Altitude | Speed | Heading |
|---|---|---|---|---|---|
| 2026-05-03 22:02 | 61.18666 | -149.99974 | 124 ft | 0 kts | 344° |
| 2026-05-03 22:14 | 61.18675 | -149.99979 | 123 ft | 4 kts | 344° |
| 2026-05-03 22:14 | 61.18710 | -150.00027 | 121 ft | 7 kts | 307° |
| 2026-05-03 22:14 | 61.18713 | -150.00134 | 126 ft | 9 kts | 258° |
| 2026-05-03 22:15 | 61.18695 | -150.00278 | 126 ft | 12 kts | 255° |
| 2026-05-03 22:15 | 61.18670 | -150.00469 | 136 ft | 17 kts | 255° |
| 2026-05-03 22:15 | 61.18638 | -150.00731 | 140 ft | 21 kts | 256° |
| 2026-05-03 22:15 | 61.18591 | -150.00949 | 140 ft | 14 kts | 207° |
| 2026-05-03 22:16 | 61.18482 | -150.00913 | 139 ft | 19 kts | 165° |
| 2026-05-03 22:16 | 61.18338 | -150.00835 | 136 ft | 24 kts | 165° |
| 2026-05-03 22:16 | 61.18159 | -150.00735 | 128 ft | 29 kts | 165° |
| 2026-05-03 22:16 | 61.17956 | -150.00617 | 126 ft | 33 kts | 165° |
| 2026-05-03 22:17 | 61.17739 | -150.00494 | 126 ft | 29 kts | 165° |
| 2026-05-03 22:17 | 61.17555 | -150.00392 | 133 ft | 23 kts | 165° |
| 2026-05-03 22:17 | 61.17408 | -150.00312 | 128 ft | 22 kts | 166° |
| 2026-05-03 22:17 | 61.17256 | -150.00232 | 137 ft | 19 kts | 165° |
| 2026-05-03 22:18 | 61.17176 | -150.00187 | 141 ft | 16 kts | 165° |
| 2026-05-03 22:18 | 61.17125 | -150.00288 | 144 ft | 10 kts | 263° |
| 2026-05-03 22:18 | 61.17122 | -150.00398 | 144 ft | 13 kts | 267° |
| 2026-05-03 22:18 | 61.17120 | -150.00585 | 144 ft | 9 kts | 270° |
| 2026-05-03 22:19 | 61.17121 | -150.00760 | 144 ft | 14 kts | 270° |
| 2026-05-03 22:19 | 61.17101 | -150.00809 | 144 ft | 3 kts | 193° |
| 2026-05-03 22:19 | 61.17093 | -150.00807 | 143 ft | 0 kts | 180° |
| 2026-05-03 22:20 | 61.17092 | -150.00807 | 143 ft | 0 kts | 180° |
| 2026-05-03 22:20 | 61.17088 | -150.00807 | 143 ft | 1 kts | 180° |
| 2026-05-03 22:20 | 61.17063 | -150.00808 | 143 ft | 7 kts | 181° |
| 2026-05-03 22:20 | 61.16997 | -150.00759 | 143 ft | 11 kts | 135° |
| 2026-05-03 22:21 | 61.16979 | -150.00637 | 144 ft | 0 kts | 91° |
| 2026-05-03 22:21 | 61.16979 | -150.00629 | 144 ft | 4 kts | 91° |
| 2026-05-03 22:22 | 61.16977 | -150.00226 | 142 ft | 65 kts | 90° |
| 2026-05-03 22:22 | 61.16979 | -149.98746 | 123 ft | 138 kts | 89° |
| 2026-05-03 22:22 | 61.16991 | -149.96394 | 196 ft | 177 kts | 91° |
| 2026-05-03 22:22 | 61.17020 | -149.93821 | 791 ft | 181 kts | 88° |
| 2026-05-03 22:23 | 61.17065 | -149.91222 | 1644 ft | 178 kts | 84° |
| 2026-05-03 22:23 | 61.17471 | -149.88841 | 2426 ft | 182 kts | 54° |
| 2026-05-03 22:23 | 61.18464 | -149.87170 | 2956 ft | 189 kts | 36° |
| 2026-05-03 22:23 | 61.19539 | -149.85617 | 3577 ft | 193 kts | 38° |
| 2026-05-03 22:24 | 61.20678 | -149.83843 | 3844 ft | 217 kts | 41° |
| 2026-05-03 22:24 | 61.21871 | -149.81665 | 4124 ft | 241 kts | 46° |
| 2026-05-03 22:24 | 61.23066 | -149.79063 | 4584 ft | 259 kts | 51° |
| 2026-05-03 22:24 | 61.24285 | -149.76136 | 5227 ft | 268 kts | 53° |
| 2026-05-03 22:25 | 61.25457 | -149.73121 | 6128 ft | 276 kts | 56° |
| 2026-05-03 22:25 | 61.26606 | -149.69796 | 6780 ft | 285 kts | 58° |
| 2026-05-03 22:25 | 61.27734 | -149.66336 | 7557 ft | 293 kts | 59° |
| 2026-05-03 22:25 | 61.28876 | -149.62764 | 8333 ft | 299 kts | 59° |
| 2026-05-03 22:26 | 61.30030 | -149.59110 | 9018 ft | 306 kts | 59° |
| 2026-05-03 22:26 | 61.31216 | -149.55323 | 9725 ft | 312 kts | 59° |
| 2026-05-03 22:26 | 61.32416 | -149.51472 | 10188 ft | 327 kts | 59° |
| 2026-05-03 22:26 | 61.33714 | -149.47281 | 10355 ft | 353 kts | 59° |
| 2026-05-03 22:27 | 61.35074 | -149.42882 | 10753 ft | 366 kts | 59° |
| 2026-05-03 22:27 | 61.36462 | -149.38382 | 11397 ft | 371 kts | 60° |
| 2026-05-03 22:27 | 61.37622 | -149.33560 | 11967 ft | 373 kts | 76° |
| 2026-05-03 22:27 | 61.38122 | -149.28252 | 12605 ft | 374 kts | 88° |
| 2026-05-03 22:28 | 61.38279 | -149.22811 | 13301 ft | 377 kts | 92° |
| 2026-05-03 22:28 | 61.38329 | -149.17294 | 13888 ft | 384 kts | 93° |
| 2026-05-03 22:28 | 61.38365 | -149.11683 | 14433 ft | 389 kts | 93° |
| 2026-05-03 22:28 | 61.38416 | -149.05972 | 14833 ft | 397 kts | 92° |
| 2026-05-03 22:29 | 61.38486 | -149.00190 | 15401 ft | 401 kts | 92° |
| 2026-05-03 22:29 | 61.38570 | -148.94321 | 15901 ft | 407 kts | 92° |
| 2026-05-03 22:29 | 61.38663 | -148.88374 | 16410 ft | 414 kts | 93° |
| 2026-05-03 22:29 | 61.38759 | -148.82335 | 16865 ft | 419 kts | 92° |
| 2026-05-03 22:30 | 61.38857 | -148.76214 | 17261 ft | 426 kts | 92° |
| 2026-05-03 22:30 | 61.38954 | -148.70033 | 17849 ft | 430 kts | 92° |
| 2026-05-03 22:30 | 61.39050 | -148.63772 | 18303 ft | 434 kts | 93° |
| 2026-05-03 22:30 | 61.39144 | -148.57431 | 18650 ft | 439 kts | 93° |
| 2026-05-03 22:31 | 61.39237 | -148.51026 | 19033 ft | 444 kts | 93° |
| 2026-05-03 22:31 | 61.39325 | -148.44554 | 19404 ft | 449 kts | 94° |
| 2026-05-03 22:31 | 61.39412 | -148.38010 | 19765 ft | 454 kts | 94° |
| 2026-05-03 22:31 | 61.39496 | -148.31401 | 20125 ft | 458 kts | 94° |
| 2026-05-03 22:32 | 61.39577 | -148.24720 | 20474 ft | 463 kts | 94° |
| 2026-05-03 22:32 | 61.39656 | -148.17974 | 20826 ft | 467 kts | 94° |
| 2026-05-03 22:32 | 61.39733 | -148.11169 | 21230 ft | 472 kts | 95° |
| 2026-05-03 22:32 | 61.39807 | -148.04286 | 21580 ft | 477 kts | 95° |
| 2026-05-03 22:33 | 61.39878 | -147.97332 | 21981 ft | 481 kts | 95° |
| 2026-05-03 22:33 | 61.39947 | -147.90296 | 22345 ft | 487 kts | 95° |
| 2026-05-03 22:33 | 61.40013 | -147.83211 | 22757 ft | 492 kts | 95° |
| 2026-05-03 22:33 | 61.40075 | -147.76034 | 23145 ft | 497 kts | 96° |
| 2026-05-03 22:34 | 61.40135 | -147.68796 | 23561 ft | 501 kts | 96° |
| 2026-05-03 22:34 | 61.40189 | -147.61483 | 23885 ft | 506 kts | 96° |
| 2026-05-03 22:34 | 61.40215 | -147.54122 | 24201 ft | 510 kts | 97° |
| 2026-05-03 22:34 | 61.40224 | -147.46698 | 24503 ft | 514 kts | 97° |
| 2026-05-03 22:35 | 61.40236 | -147.39203 | 24855 ft | 518 kts | 97° |
| 2026-05-03 22:35 | 61.40258 | -147.31653 | 25237 ft | 522 kts | 96° |
| 2026-05-03 22:35 | 61.40287 | -147.24060 | 25562 ft | 526 kts | 95° |
| 2026-05-03 22:35 | 61.40320 | -147.16392 | 25948 ft | 530 kts | 96° |
| 2026-05-03 22:36 | 61.40350 | -147.08674 | 26248 ft | 534 kts | 96° |
| 2026-05-03 22:36 | 61.40378 | -147.00892 | 26582 ft | 537 kts | 96° |
| 2026-05-03 22:36 | 61.40401 | -146.93090 | 26907 ft | 541 kts | 96° |
| 2026-05-03 22:36 | 61.40418 | -146.85204 | 27221 ft | 545 kts | 96° |
| 2026-05-03 22:37 | 61.40431 | -146.77290 | 27584 ft | 548 kts | 96° |
| 2026-05-03 22:37 | 61.40439 | -146.69297 | 27914 ft | 551 kts | 96° |
| 2026-05-03 22:37 | 61.40441 | -146.61279 | 28215 ft | 555 kts | 96° |
| 2026-05-03 22:37 | 61.40440 | -146.55821 | 28397 ft | 558 kts | 96° |
| 2026-05-03 22:38 | 61.40434 | -146.46993 | 28750 ft | 562 kts | 96° |
| 2026-05-03 22:38 | 61.40423 | -146.38821 | 29051 ft | 565 kts | 96° |
| 2026-05-03 22:38 | 61.40408 | -146.30592 | 29358 ft | 569 kts | 96° |
| 2026-05-03 22:38 | 61.40388 | -146.22310 | 29637 ft | 573 kts | 96° |
| 2026-05-03 22:39 | 61.40362 | -146.13868 | 29904 ft | 576 kts | 96° |
| 2026-05-03 22:39 | 61.40330 | -146.05490 | 30213 ft | 579 kts | 96° |
| 2026-05-03 22:39 | 61.40294 | -145.97066 | 30394 ft | 582 kts | 96° |
| 2026-05-03 22:39 | 61.40251 | -145.88622 | 30758 ft | 582 kts | 96° |
| 2026-05-03 22:40 | 61.40178 | -145.80187 | 31044 ft | 581 kts | 96° |
| 2026-05-03 22:40 | 61.40086 | -145.71767 | 31372 ft | 579 kts | 96° |
| 2026-05-03 22:40 | 61.39996 | -145.63379 | 31787 ft | 577 kts | 96° |
| 2026-05-03 22:40 | 61.39915 | -145.55122 | 32134 ft | 574 kts | 96° |
| 2026-05-03 22:41 | 61.39840 | -145.46696 | 32523 ft | 573 kts | 96° |
| 2026-05-03 22:41 | 61.39769 | -145.38520 | 32899 ft | 569 kts | 96° |
| 2026-05-03 22:41 | 61.39694 | -145.30279 | 33191 ft | 570 kts | 96° |
| 2026-05-03 22:42 | 61.39522 | -145.13529 | 33253 ft | 576 kts | 96° |
| 2026-05-03 22:42 | 61.39391 | -144.96778 | 33258 ft | 578 kts | 95° |
| 2026-05-03 22:43 | 61.39371 | -144.80100 | 33253 ft | 580 kts | 94° |
| 2026-05-03 22:43 | 61.39370 | -144.63250 | 33266 ft | 581 kts | 94° |
| 2026-05-03 22:44 | 61.39344 | -144.46367 | 33265 ft | 582 kts | 94° |
| 2026-05-03 22:44 | 61.39286 | -144.29368 | 33268 ft | 582 kts | 94° |
| 2026-05-03 22:45 | 61.39204 | -144.12484 | 33265 ft | 583 kts | 95° |
| 2026-05-03 22:45 | 61.39102 | -143.95553 | 33269 ft | 583 kts | 95° |
| 2026-05-03 22:46 | 61.38982 | -143.78653 | 33258 ft | 583 kts | 95° |
| 2026-05-03 22:46 | 61.38840 | -143.61734 | 33268 ft | 583 kts | 95° |
| 2026-05-03 22:47 | 61.38675 | -143.44818 | 33263 ft | 585 kts | 95° |
| 2026-05-03 22:47 | 61.38502 | -143.30586 | 33258 ft | 585 kts | 96° |
| 2026-05-03 22:48 | 61.38176 | -143.10870 | 33259 ft | 586 kts | 96° |
| 2026-05-03 22:48 | 61.37921 | -142.93901 | 33272 ft | 585 kts | 96° |
| 2026-05-03 22:49 | 61.37674 | -142.76962 | 33259 ft | 584 kts | 96° |
| 2026-05-03 22:49 | 61.37410 | -142.60026 | 33268 ft | 583 kts | 96° |
| 2026-05-03 22:50 | 61.37170 | -142.45882 | 33271 ft | 583 kts | 96° |
| 2026-05-03 22:50 | 61.36863 | -142.29009 | 33240 ft | 581 kts | 97° |
| 2026-05-03 22:51 | 61.36535 | -142.12189 | 33258 ft | 581 kts | 97° |
| 2026-05-03 22:51 | 61.36185 | -141.95368 | 33239 ft | 581 kts | 97° |
| 2026-05-03 22:52 | 61.35815 | -141.78463 | 33225 ft | 580 kts | 97° |
| 2026-05-03 22:52 | 61.35421 | -141.61674 | 33212 ft | 578 kts | 97° |
| 2026-05-03 22:53 | 61.34936 | -141.44926 | 33211 ft | 579 kts | 98° |
| 2026-05-03 22:53 | 61.34457 | -141.28163 | 33227 ft | 579 kts | 97° |
| 2026-05-03 22:54 | 61.34000 | -141.11421 | 33228 ft | 579 kts | 97° |
| 2026-05-03 22:54 | 61.33667 | -140.94682 | 33227 ft | 579 kts | 93° |
| 2026-05-03 22:55 | 61.33755 | -140.77892 | 33231 ft | 580 kts | 91° |
| 2026-05-03 22:55 | 61.33950 | -140.61115 | 33220 ft | 580 kts | 91° |
| 2026-05-03 22:56 | 61.34096 | -140.44328 | 33211 ft | 579 kts | 91° |
| 2026-05-03 22:56 | 61.34105 | -140.27568 | 33201 ft | 577 kts | 96° |
| 2026-05-03 22:57 | 61.33270 | -140.11011 | 33204 ft | 574 kts | 102° |
| 2026-05-03 22:57 | 61.32064 | -139.94585 | 33204 ft | 574 kts | 102° |
| 2026-05-03 22:58 | 61.30883 | -139.78151 | 33189 ft | 575 kts | 102° |
| 2026-05-03 22:58 | 61.29755 | -139.61683 | 33163 ft | 575 kts | 101° |
| 2026-05-03 22:59 | 61.28628 | -139.45235 | 33134 ft | 573 kts | 102° |
| 2026-05-03 22:59 | 61.27477 | -139.28828 | 33114 ft | 574 kts | 101° |
| 2026-05-03 23:00 | 61.26301 | -139.12420 | 33147 ft | 574 kts | 101° |
| 2026-05-03 23:00 | 61.25708 | -139.04243 | 33456 ft | 572 kts | 101° |
| 2026-05-03 23:00 | 61.25103 | -138.95973 | 33853 ft | 569 kts | 102° |
| 2026-05-03 23:00 | 61.24506 | -138.87888 | 34251 ft | 565 kts | 101° |
| 2026-05-03 23:01 | 61.23909 | -138.79855 | 34603 ft | 560 kts | 102° |
| 2026-05-03 23:01 | 61.23311 | -138.71893 | 34955 ft | 557 kts | 102° |
| 2026-05-03 23:01 | 61.22710 | -138.63963 | 35107 ft | 557 kts | 102° |
| 2026-05-03 23:02 | 61.21437 | -138.48057 | 35178 ft | 559 kts | 103° |
| 2026-05-03 23:02 | 61.20129 | -138.32131 | 35192 ft | 560 kts | 102° |
| 2026-05-03 23:03 | 61.18854 | -138.16221 | 35202 ft | 559 kts | 103° |